createdAt,value
2022-10-02T06:54:31.533Z,6.80
2022-10-02T07:00:12.500Z,8.32
2022-10-02T07:06:02.518Z,5.13
2022-10-02T07:11:37.555Z,7.93
2022-10-02T07:17:23.506Z,5.10
2022-10-02T07:23:01.513Z,6.45
2022-10-02T07:28:35.536Z,3.58
2022-10-02T07:34:20.494Z,4.68
2022-10-02T07:39:58.510Z,4.80
2022-10-02T07:45:43.612Z,2.10
2022-10-02T07:51:34.542Z,3.88
2022-10-02T07:57:03.305Z,4.68
2022-10-02T08:02:42.550Z,2.60
2022-10-02T08:08:12.503Z,2.53
2022-10-02T08:13:43.542Z,3.95
2022-10-02T08:19:14.522Z,2.30
2022-10-02T08:24:42.602Z,3.00
2022-10-02T08:30:13.550Z,3.70
2022-10-02T08:35:52.559Z,3.80
2022-10-02T08:41:48.613Z,3.03
2022-10-02T08:47:50.614Z,3.67
2022-10-02T08:53:50.572Z,3.83
2022-10-02T08:59:43.577Z,4.25
2022-10-02T09:05:50.551Z,3.80
2022-10-02T09:11:51.579Z,4.53
2022-10-02T09:17:37.578Z,4.03
2022-10-02T09:23:22.586Z,4.05
2022-10-02T09:29:35.562Z,4.30
2022-10-02T09:35:34.593Z,4.22
2022-10-02T09:41:30.637Z,4.68
2022-10-02T09:47:49.622Z,3.72
2022-10-02T09:53:51.658Z,5.15
2022-10-02T09:59:56.632Z,3.40
2022-10-02T10:05:48.577Z,5.35
2022-10-02T10:11:35.845Z,5.18
2022-10-02T10:17:29.594Z,5.03
2022-10-02T10:23:17.627Z,4.68
2022-10-02T10:29:01.841Z,5.10
2022-10-02T10:35:26.468Z,5.43
2022-10-02T10:41:29.606Z,4.25
2022-10-02T10:47:28.657Z,4.18
2022-10-02T10:53:10.647Z,4.20
2022-10-02T10:58:49.761Z,3.47
2022-10-02T11:04:54.679Z,2.72
2022-10-02T11:10:44.646Z,5.07
2022-10-02T11:16:26.689Z,2.95
2022-10-02T11:22:22.680Z,3.72
2022-10-02T11:28:25.763Z,2.22
2022-10-02T11:34:23.673Z,2.58
2022-10-02T11:40:03.743Z,3.63
2022-10-02T11:45:54.718Z,2.13
2022-10-02T11:51:35.058Z,2.13
2022-10-02T11:57:20.715Z,2.83
2022-10-02T12:03:01.882Z,3.47
2022-10-02T12:08:38.574Z,3.72
2022-10-02T12:14:15.750Z,3.72
2022-10-02T12:20:16.790Z,3.17
2022-10-02T12:26:04.973Z,2.73
2022-10-02T12:31:36.947Z,2.38
2022-10-02T12:37:14.821Z,3.17
2022-10-02T12:43:16.761Z,1.75
2022-10-02T12:49:00.779Z,1.92
2022-10-02T12:55:09.817Z,2.90
2022-10-02T13:00:44.819Z,3.70
2022-10-02T13:06:38.766Z,3.85
2022-10-02T13:12:27.803Z,2.90
2022-10-02T13:18:03.447Z,2.40
2022-10-02T13:23:42.635Z,3.25
2022-10-02T13:29:40.787Z,2.50
2022-10-02T13:35:34.742Z,3.97
2022-10-02T13:41:07.747Z,2.70
2022-10-02T13:46:54.751Z,2.20
2022-10-02T13:52:46.270Z,3.42
2022-10-02T13:58:44.936Z,1.50
2022-10-02T14:04:39.197Z,1.80
2022-10-02T14:10:26.459Z,3.38
2022-10-02T14:22:57.015Z,1.85
2022-10-02T14:34:34.845Z,3.33
2022-10-02T14:40:01.006Z,2.88
2022-10-02T14:45:40.950Z,3.00
2022-10-02T14:51:25.836Z,3.13
2022-10-02T14:57:08.826Z,2.10
2022-10-02T15:02:52.006Z,2.83
2022-10-02T15:08:25.842Z,1.52
2022-10-02T15:13:58.810Z,2.85
2022-10-02T15:19:31.847Z,2.42
2022-10-02T15:25:05.862Z,2.70
2022-10-02T15:30:35.828Z,3.05
2022-10-02T15:36:29.822Z,4.55
2022-10-02T15:42:09.844Z,2.65
2022-10-02T15:48:00.862Z,2.50
2022-10-02T15:53:46.003Z,3.13
2022-10-02T15:59:29.868Z,3.50
2022-10-02T16:05:08.825Z,3.10
2022-10-02T16:10:40.847Z,5.60
2022-10-02T16:16:16.880Z,4.68
2022-10-02T16:21:53.835Z,4.30
2022-10-02T16:27:39.795Z,4.80
2022-10-02T16:33:33.867Z,3.72
2022-10-02T16:39:00.857Z,4.25
2022-10-02T16:44:41.825Z,3.92
2022-10-02T16:50:14.839Z,5.53
2022-10-02T16:55:47.812Z,4.60
2022-10-02T17:01:28.808Z,4.55
2022-10-02T17:07:05.865Z,7.60
2022-10-02T17:12:35.874Z,4.97
2022-10-02T17:18:16.849Z,5.25
2022-10-02T17:23:53.855Z,4.83
2022-10-02T17:29:27.988Z,5.82
2022-10-02T17:34:58.851Z,5.68
2022-10-02T17:40:39.841Z,5.27
2022-10-02T17:46:15.951Z,5.43
2022-10-02T17:51:58.885Z,6.50
2022-10-02T17:57:39.870Z,4.90
2022-10-02T18:03:26.898Z,6.20
2022-10-02T18:09:17.903Z,6.53
2022-10-02T18:15:11.902Z,6.13
2022-10-02T18:20:43.877Z,6.78
2022-10-02T18:26:29.870Z,7.53
2022-10-02T18:32:15.911Z,5.40
2022-10-02T18:37:57.881Z,5.00
2022-10-02T18:43:38.900Z,8.13
2022-10-02T18:49:27.935Z,4.80
2022-10-02T18:55:06.923Z,5.78
2022-10-02T19:00:34.954Z,5.65
2022-10-02T19:06:11.891Z,5.55
2022-10-02T19:11:38.937Z,6.03
2022-10-02T19:17:15.884Z,4.70
2022-10-02T19:22:45.922Z,6.85
2022-10-02T19:28:10.956Z,4.35
2022-10-02T19:33:48.939Z,4.53
2022-10-02T19:39:18.927Z,6.53
2022-10-02T19:44:53.895Z,5.47
2022-10-02T19:50:29.924Z,4.63
2022-10-02T19:55:58.963Z,3.47
2022-10-02T20:01:30.960Z,5.50
2022-10-02T20:07:05.924Z,5.13
2022-10-02T20:12:38.981Z,4.65
2022-10-02T20:18:02.950Z,7.85
2022-10-02T20:23:34.912Z,5.93
2022-10-02T20:29:07.921Z,5.18
2022-10-02T20:34:38.023Z,6.95
2022-10-02T20:40:06.959Z,7.75
2022-10-02T20:45:44.015Z,6.15
2022-10-02T20:51:16.947Z,4.80
2022-10-02T20:57:00.002Z,5.47
2022-10-02T21:02:44.931Z,5.50
2022-10-02T21:08:40.950Z,7.43
2022-10-02T21:14:49.971Z,5.03
2022-10-02T21:20:53.975Z,8.82
2022-10-02T21:26:55.960Z,6.95
2022-10-02T21:38:19.987Z,6.85
2022-10-02T21:44:13.007Z,7.47
2022-10-02T21:50:14.978Z,6.63
2022-10-02T22:02:07.923Z,7.13
2022-10-02T22:07:45.971Z,7.38
2022-10-02T22:13:25.011Z,6.18
2022-10-02T22:19:02.990Z,5.63
2022-10-02T22:24:58.017Z,7.47
2022-10-02T22:30:35.026Z,6.65
2022-10-02T22:36:24.017Z,8.93
2022-10-02T22:41:53.072Z,9.40
2022-10-02T22:47:30.002Z,6.22
2022-10-02T22:53:03.986Z,6.90
2022-10-02T22:58:33.006Z,5.13
2022-10-02T23:04:09.029Z,9.57
2022-10-02T23:09:46.007Z,9.13
2022-10-02T23:15:19.006Z,7.40
2022-10-02T23:20:49.043Z,9.45
2022-10-02T23:26:23.027Z,8.13
2022-10-02T23:31:55.015Z,8.75
2022-10-02T23:37:31.033Z,7.03
2022-10-02T23:43:06.053Z,10.70
2022-10-02T23:48:32.043Z,9.27
2022-10-02T23:54:28.045Z,8.02
